KGGE

Georgetown County Airport

Georgetown, South Carolina, USA
METAR KGGE 172055Z AUTO 19004KT 10SM CLR 16/04 A3023 RMK AO2
Observed Flight Rules
Dec-17 @ 20:55 UTC (30 minutes ago) Visual Flight Rules
Wind Visibility Clouds
190° at 4 knots 10 miles
  • Clear skies
Temperatures Readings
Current 16°C / 61°F
Dewpoint 4°C / 39°F
Humidity 45%
Altimeter 30.23" Hg
Pressure 1024 hPa
Elevation 12
METAR KGGE 172055Z AUTO 19004KT 10SM CLR 16/04 A3023 RMK AO2
Observed Flight Rules
Dec-17 @ 20:55 UTC
(30 minutes ago)
VFR
Wind Visibility
190° at 4 knots 10 miles
Clouds
  • Clear skies
Temperature Dewpoint
16°C / 61°F 4°C / 39°F
Humidity Altimeter Pressure
45% 30.23" Hg 1024 hPa